LPPD/PDL METAR and TAF weather

Enter ICAO airport designator
Station Type Date Time Source
LPPD METAR 2021/06/24 06:00 UTC NOAA

LPPD 240600Z 27006KT 9999 FEW020 BKN033 19/14 Q1025


Station Type Date Time Source
LPPD Decoded METAR 2021/06/24 06:00 UTC NOAA

Ponta Delgada / Nordela Acores , Portugal (LPPD) 37-44N 025-42W 72M
Jun 24, 2021 - 02:00 AM EDT / 2021.06.24 0600 UTC
Wind: from the W (270 degrees) at 7 MPH (6 KT):0
Visibility: greater than 7 mile(s):0
Sky conditions: mostly cloudy
Temperature: 66 F (19 C)
Dew Point: 57 F (14 C)
Relative Humidity: 72%
Pressure (altimeter): 30.27 in. Hg (1025 hPa)
ob: LPPD 240600Z 27006KT 9999 FEW020 BKN033 19/14 Q1025
cycle: 6

Station Type Date Time Source
LPPD TAF 2021/06/24 06:18 UTC NOAA

TAF LPPD 240500Z 2406/2506 VRB05KT 9999 FEW025 BKN035
TEMPO 2406/2412 SCT020
BECMG 2406/2408 25010KT
BECMG 2412/2415 21015KT SCT012 BKN025
TEMPO 2415/2506 3000 RADZ BR SCT004 BKN008 FEW020TCU PROB30
TEMPO 2421/2506 2000 TSRA SCT018CB

Example: see airport list